Time;durP1;ratioP1;P1;durP2;ratioP2;P2;SDS_P1;SDS_P2;PMS_P1;PMS_P2;Temp;Humidity;BMP_temperature;BMP_pressure;BME280_temperature;BME280_humidity;BME280_pressure;Samples;Min_cycle;Max_cycle;Signal;HPM_P1;HPM_P2
2021/12/12 00:01:00;;;;;;;12.67;11.77;;;4.20;99.90;;;;;;5005609;28;20712;-74
2021/12/12 00:03:36;;;;;;;12.87;11.97;;;4.20;99.90;;;;;;5015213;28;20200;-74
2021/12/12 00:06:08;;;;;;;12.77;11.90;;;4.10;99.90;;;;;;5001555;28;20208;-74
2021/12/12 00:08:37;;;;;;;13.40;12.20;;;4.10;99.90;;;;;;5024219;28;20585;-74
2021/12/12 00:11:06;;;;;;;13.73;12.63;;;4.20;99.90;;;;;;5002450;28;20315;-75
2021/12/12 00:13:38;;;;;;;14.13;13.13;;;4.10;99.90;;;;;;5008229;28;20278;-75
2021/12/12 00:16:07;;;;;;;13.50;12.60;;;4.20;99.90;;;;;;5020385;28;20196;-74
2021/12/12 00:18:34;;;;;;;13.80;12.70;;;4.20;99.90;;;;;;5022537;28;20192;-75
2021/12/12 00:21:01;;;;;;;14.03;13.10;;;4.10;99.90;;;;;;5020380;28;20220;-75
2021/12/12 00:23:28;;;;;;;13.73;12.83;;;4.10;99.90;;;;;;5012014;28;20197;-74
2021/12/12 00:25:58;;;;;;;14.60;13.50;;;4.10;99.90;;;;;;5019753;28;20659;-74
2021/12/12 00:28:25;;;;;;;14.10;13.10;;;4.10;99.90;;;;;;5022764;28;20192;-74
2021/12/12 00:30:55;;;;;;;14.13;13.13;;;4.10;99.90;;;;;;5019237;28;20274;-75
2021/12/12 00:33:24;;;;;;;14.03;13.10;;;4.10;99.90;;;;;;5025431;28;20705;-74
2021/12/12 00:35:52;;;;;;;14.77;13.77;;;4.10;99.90;;;;;;5010285;28;20205;-74
2021/12/12 00:38:24;;;;;;;14.97;13.97;;;4.00;99.90;;;;;;5007602;28;20209;-75
2021/12/12 00:40:55;;;;;;;15.80;14.60;;;4.00;99.90;;;;;;5026150;28;20207;-75
2021/12/12 00:43:26;;;;;;;16.00;14.80;;;4.00;99.90;;;;;;5017907;28;20193;-75
2021/12/12 00:45:57;;;;;;;16.27;15.17;;;3.90;99.90;;;;;;5027216;28;20664;-74
2021/12/12 00:48:25;;;;;;;16.93;15.50;;;4.00;99.90;;;;;;5008588;28;20616;-75
2021/12/12 00:50:53;;;;;;;15.80;14.70;;;4.00;99.90;;;;;;5026600;28;20226;-74
2021/12/12 00:53:22;;;;;;;15.93;14.83;;;4.00;99.90;;;;;;5011299;28;20217;-74
2021/12/12 00:55:51;;;;;;;16.53;15.23;;;4.00;99.90;;;;;;5015330;28;20204;-74
2021/12/12 00:58:20;;;;;;;16.30;15.10;;;3.90;99.90;;;;;;5024950;28;20259;-75
2021/12/12 01:00:51;;;;;;;16.00;14.70;;;3.90;99.90;;;;;;5012463;28;20250;-75
2021/12/12 01:03:22;;;;;;;16.30;15.00;;;3.90;99.90;;;;;;5025221;28;20266;-74
2021/12/12 01:05:49;;;;;;;16.33;15.13;;;3.90;99.90;;;;;;5026810;28;20188;-75
2021/12/12 01:08:17;;;;;;;15.73;14.63;;;3.90;99.90;;;;;;5006309;28;20629;-75
2021/12/12 01:10:47;;;;;;;16.40;15.17;;;3.90;99.90;;;;;;5011072;28;20227;-75
2021/12/12 01:13:14;;;;;;;18.53;16.87;;;3.90;99.90;;;;;;5016729;28;20228;-74
2021/12/12 01:15:52;;;;;;;16.03;14.83;;;3.90;99.90;;;;;;5002802;28;20564;-74
2021/12/12 01:18:23;;;;;;;16.50;15.30;;;3.90;99.90;;;;;;4999314;28;20675;-75
2021/12/12 01:20:56;;;;;;;16.97;15.60;;;3.90;99.90;;;;;;5022256;28;20208;-74
2021/12/12 01:23:28;;;;;;;17.03;15.73;;;3.90;99.90;;;;;;4999718;28;20348;-74
2021/12/12 01:25:58;;;;;;;16.90;15.60;;;3.80;99.90;;;;;;5020469;28;20673;-75
2021/12/12 01:28:30;;;;;;;15.43;14.33;;;3.80;99.90;;;;;;5029945;28;20247;-74
2021/12/12 01:30:59;;;;;;;16.83;15.53;;;3.80;99.90;;;;;;5007970;28;20266;-74
2021/12/12 01:33:34;;;;;;;16.90;15.53;;;3.80;99.90;;;;;;5019683;28;20208;-74
2021/12/12 01:36:04;;;;;;;17.57;16.17;;;3.80;99.90;;;;;;5025586;28;20214;-74
2021/12/12 01:41:16;;;;;;;16.63;15.47;;;3.80;99.90;;;;;;5023597;28;20209;-75
2021/12/12 01:43:47;;;;;;;16.37;15.27;;;3.80;99.90;;;;;;5025027;28;20673;-74
2021/12/12 01:46:19;;;;;;;16.30;15.20;;;3.80;99.90;;;;;;5023961;28;20720;-75
2021/12/12 01:48:51;;;;;;;16.37;15.10;;;3.80;99.90;;;;;;5002398;28;20574;-74
2021/12/12 01:51:19;;;;;;;16.83;15.53;;;3.80;99.90;;;;;;5019075;28;20406;-74
2021/12/12 01:53:49;;;;;;;16.57;15.40;;;3.80;99.90;;;;;;5019384;28;20212;-75
2021/12/12 01:56:20;;;;;;;15.93;14.83;;;3.80;99.90;;;;;;5023603;28;20251;-74
2021/12/12 01:58:54;;;;;;;15.97;14.87;;;3.80;99.90;;;;;;5008054;28;20261;-74
2021/12/12 02:01:24;;;;;;;15.97;14.87;;;3.80;99.90;;;;;;5022711;28;20220;-74
2021/12/12 02:03:59;;;;;;;15.67;14.43;;;3.80;99.90;;;;;;5014096;28;20197;-74
2021/12/12 02:06:26;;;;;;;15.33;14.27;;;3.80;99.90;;;;;;5022582;28;20203;-75
2021/12/12 02:08:55;;;;;;;15.33;14.23;;;3.80;99.90;;;;;;4998643;28;20411;-74
2021/12/12 02:11:26;;;;;;;15.20;14.20;;;3.80;99.90;;;;;;5010762;28;20273;-74
2021/12/12 02:13:56;;;;;;;15.70;14.60;;;3.80;99.90;;;;;;5003926;28;20783;-75
2021/12/12 02:16:26;;;;;;;14.90;13.90;;;3.80;99.90;;;;;;5024492;28;20434;-75
2021/12/12 02:18:57;;;;;;;15.17;14.10;;;3.80;99.90;;;;;;5025399;28;20276;-74
2021/12/12 02:21:31;;;;;;;15.20;14.13;;;3.80;99.90;;;;;;5023713;28;20270;-74
2021/12/12 02:24:35;;;;;;;15.13;14.13;;;3.80;99.90;;;;;;5012092;28;20303;-75
2021/12/12 02:35:36;;;;;;;15.67;14.43;;;3.80;99.90;;;;;;5024353;28;20199;-74
2021/12/12 02:38:05;;;;;;;15.10;14.10;;;3.80;99.90;;;;;;5025267;28;20208;-75
2021/12/12 02:40:36;;;;;;;15.33;14.23;;;3.80;99.90;;;;;;5003361;28;20220;-76
2021/12/12 02:43:05;;;;;;;14.93;13.73;;;3.80;99.90;;;;;;5026307;28;20258;-74
2021/12/12 02:45:33;;;;;;;14.50;13.50;;;3.80;99.90;;;;;;5021020;28;20203;-75
2021/12/12 02:48:04;;;;;;;15.70;14.50;;;3.80;99.90;;;;;;5006453;28;20203;-74
2021/12/12 02:50:36;;;;;;;15.97;14.77;;;3.80;99.90;;;;;;5007091;28;20220;-75
2021/12/12 02:53:11;;;;;;;16.10;15.00;;;3.80;99.90;;;;;;5006976;28;20252;-74
2021/12/12 02:55:44;;;;;;;15.90;14.63;;;3.70;99.90;;;;;;5031972;28;20188;-74
2021/12/12 02:58:14;;;;;;;15.57;14.33;;;3.80;99.90;;;;;;5032424;28;20233;-74
2021/12/12 03:00:45;;;;;;;15.83;14.60;;;3.80;99.90;;;;;;5014768;28;20215;-74
2021/12/12 03:03:12;;;;;;;15.40;14.30;;;3.80;99.90;;;;;;5022560;28;20251;-74
2021/12/12 03:05:43;;;;;;;15.67;14.57;;;3.70;99.90;;;;;;5029738;28;20615;-74
2021/12/12 03:08:11;;;;;;;15.70;14.50;;;3.70;99.90;;;;;;5028898;28;20601;-74
2021/12/12 03:10:42;;;;;;;15.10;14.10;;;3.70;99.90;;;;;;5069558;22;20216;-79
2021/12/12 03:13:09;;;;;;;14.20;13.20;;;3.70;99.90;;;;;;5023132;28;20220;-81
2021/12/12 03:15:39;;;;;;;14.80;13.73;;;3.70;99.90;;;;;;5024700;28;20192;-79
2021/12/12 03:18:09;;;;;;;15.47;14.30;;;3.70;99.90;;;;;;5020794;28;20235;-80
2021/12/12 03:20:38;;;;;;;15.13;13.93;;;3.60;99.90;;;;;;5026539;28;20196;-80
2021/12/12 03:23:08;;;;;;;15.07;13.90;;;3.60;99.90;;;;;;5030266;28;20196;-80
2021/12/12 03:25:39;;;;;;;13.97;12.97;;;3.60;99.90;;;;;;5033404;28;20196;-81
2021/12/12 03:28:10;;;;;;;13.93;13.03;;;3.60;99.90;;;;;;5033608;28;20254;-80
2021/12/12 03:30:38;;;;;;;13.93;12.93;;;3.50;99.90;;;;;;5034584;28;20196;-81
2021/12/12 03:33:05;;;;;;;13.60;12.60;;;3.50;99.90;;;;;;5032593;28;20220;-79
2021/12/12 03:35:32;;;;;;;15.10;13.70;;;3.50;99.90;;;;;;5032137;28;20634;-81
2021/12/12 03:37:59;;;;;;;13.83;12.80;;;3.50;99.90;;;;;;5032586;28;20211;-79
2021/12/12 03:40:30;;;;;;;13.63;12.67;;;3.50;99.90;;;;;;5031790;28;20684;-78
2021/12/12 03:43:02;;;;;;;14.00;12.90;;;3.40;99.90;;;;;;5032745;28;20489;-78
2021/12/12 03:45:30;;;;;;;13.77;12.77;;;3.40;99.90;;;;;;5026855;28;20226;-79
2021/12/12 03:48:01;;;;;;;14.90;13.67;;;3.40;99.90;;;;;;5027313;28;20487;-81
2021/12/12 03:50:34;;;;;;;14.67;13.67;;;3.40;99.90;;;;;;5026452;28;20207;-81
2021/12/12 03:53:04;;;;;;;14.77;13.50;;;3.40;99.90;;;;;;5032815;28;20246;-80
2021/12/12 03:55:32;;;;;;;14.40;13.50;;;3.40;99.90;;;;;;5027147;28;20200;-81
2021/12/12 03:58:00;;;;;;;14.50;13.60;;;3.30;99.90;;;;;;5018737;28;21756;-80
2021/12/12 04:00:33;;;;;;;14.40;13.40;;;3.30;99.90;;;;;;5021036;28;20200;-80
2021/12/12 04:03:00;;;;;;;13.97;13.07;;;3.20;99.90;;;;;;5017210;28;20219;-80
2021/12/12 04:05:27;;;;;;;14.70;13.70;;;3.10;99.90;;;;;;5026596;28;20204;-80
2021/12/12 04:07:55;;;;;;;14.77;13.77;;;3.10;99.90;;;;;;5025502;28;20570;-80
2021/12/12 04:10:24;;;;;;;14.53;13.33;;;3.00;99.90;;;;;;5036749;28;20245;-80
2021/12/12 04:12:52;;;;;;;14.10;13.07;;;3.00;99.90;;;;;;5035342;28;20507;-81
2021/12/12 04:15:20;;;;;;;14.93;13.93;;;3.00;99.90;;;;;;5033967;28;20808;-80
2021/12/12 04:17:48;;;;;;;14.40;13.50;;;3.00;99.90;;;;;;5031092;28;20203;-79
2021/12/12 04:20:19;;;;;;;14.90;13.67;;;3.00;99.90;;;;;;5032583;28;20442;-79
2021/12/12 04:22:46;;;;;;;14.17;13.33;;;2.90;99.90;;;;;;5028514;28;20513;-79
2021/12/12 04:25:14;;;;;;;14.87;13.77;;;3.00;99.90;;;;;;5034197;28;20446;-79
2021/12/12 04:27:41;;;;;;;14.77;13.77;;;3.00;99.90;;;;;;5034176;28;20476;-79
2021/12/12 04:30:11;;;;;;;14.47;13.47;;;2.90;99.90;;;;;;5024804;28;20451;-81
2021/12/12 04:32:41;;;;;;;15.17;13.97;;;2.90;99.90;;;;;;5030723;28;20235;-80
2021/12/12 04:35:13;;;;;;;14.97;13.93;;;2.80;99.90;;;;;;5035418;28;20478;-79
2021/12/12 04:37:40;;;;;;;15.13;14.00;;;2.80;99.90;;;;;;5034054;28;20460;-79
2021/12/12 04:40:11;;;;;;;15.03;13.73;;;2.80;99.90;;;;;;5023955;28;20453;-80
2021/12/12 04:42:40;;;;;;;14.90;13.87;;;2.70;99.90;;;;;;5030368;28;20983;-79
2021/12/12 04:45:17;;;;;;;15.03;14.03;;;2.70;99.90;;;;;;5030310;28;20457;-79
2021/12/12 04:50:48;;;;;;;15.17;14.13;;;2.60;99.90;;;;;;5033315;28;20439;-79
2021/12/12 04:53:19;;;;;;;15.53;14.23;;;2.60;99.90;;;;;;5032502;28;20881;-80
2021/12/12 04:55:57;;;;;;;15.30;14.20;;;2.50;99.90;;;;;;5031281;28;21036;-79
2021/12/12 04:58:32;;;;;;;14.93;13.83;;;2.50;99.90;;;;;;5031904;28;20508;-78
2021/12/12 05:01:02;;;;;;;15.20;14.10;;;2.40;99.90;;;;;;5033038;28;20493;-78
2021/12/12 05:03:37;;;;;;;15.00;13.90;;;2.30;99.90;;;;;;5032649;28;20455;-79
2021/12/12 05:06:11;;;;;;;15.17;14.10;;;2.20;99.90;;;;;;5032652;28;20450;-79
2021/12/12 05:08:44;;;;;;;15.10;14.10;;;2.20;99.90;;;;;;5032434;28;20452;-79
2021/12/12 05:11:19;;;;;;;14.93;13.93;;;2.20;99.90;;;;;;5031211;28;20477;-79
2021/12/12 05:13:51;;;;;;;15.10;14.10;;;2.10;99.90;;;;;;5030705;28;20482;-78
2021/12/12 05:16:24;;;;;;;16.10;14.83;;;2.00;99.90;;;;;;5032417;28;20627;-78
2021/12/12 05:19:01;;;;;;;16.10;14.80;;;2.00;99.90;;;;;;5032251;28;20458;-78
2021/12/12 05:21:33;;;;;;;16.63;15.23;;;1.90;99.90;;;;;;5026209;28;20469;-79
2021/12/12 05:24:04;;;;;;;15.70;14.60;;;1.90;99.90;;;;;;5031162;28;20442;-78
2021/12/12 05:26:36;;;;;;;16.07;15.07;;;1.80;99.90;;;;;;5024692;28;20564;-79
2021/12/12 05:29:06;;;;;;;15.10;14.20;;;1.80;99.90;;;;;;5021925;28;20505;-77
2021/12/12 05:31:34;;;;;;;15.10;13.87;;;1.70;99.90;;;;;;5025666;28;20474;-79
2021/12/12 05:34:02;;;;;;;15.10;14.10;;;1.70;99.90;;;;;;5027490;28;20522;-79
2021/12/12 05:36:34;;;;;;;14.80;13.70;;;1.70;99.90;;;;;;5019875;28;21041;-79
2021/12/12 05:39:02;;;;;;;14.83;13.83;;;1.70;99.90;;;;;;5027998;28;20821;-78
2021/12/12 05:41:29;;;;;;;14.60;13.60;;;1.70;99.90;;;;;;5028426;28;20466;-77
2021/12/12 05:43:57;;;;;;;14.23;13.33;;;1.60;99.90;;;;;;5022520;28;20454;-76
2021/12/12 05:46:26;;;;;;;14.40;13.43;;;1.50;99.90;;;;;;5031335;28;20482;-78
2021/12/12 05:48:54;;;;;;;14.60;13.67;;;1.50;99.90;;;;;;5031726;28;20498;-79
2021/12/12 05:51:22;;;;;;;14.57;13.57;;;1.40;99.90;;;;;;5029043;28;20922;-79
2021/12/12 05:53:52;;;;;;;15.00;13.93;;;1.30;99.90;;;;;;5028636;28;20597;-79
2021/12/12 05:56:22;;;;;;;15.17;13.97;;;1.30;99.90;;;;;;5025849;28;20435;-79
2021/12/12 05:58:50;;;;;;;15.13;13.93;;;1.30;99.90;;;;;;5022913;28;20857;-78
2021/12/12 06:01:17;;;;;;;14.83;13.73;;;1.20;99.90;;;;;;5020080;28;20531;-78
2021/12/12 06:03:45;;;;;;;14.90;13.87;;;1.20;99.90;;;;;;5030762;28;20768;-78
2021/12/12 06:06:18;;;;;;;15.00;13.80;;;1.10;99.90;;;;;;5022034;28;20496;-78
2021/12/12 06:08:46;;;;;;;15.00;14.10;;;1.10;99.90;;;;;;5030903;28;20456;-79
2021/12/12 06:11:17;;;;;;;15.07;13.97;;;1.10;99.90;;;;;;5031658;28;20483;-79
2021/12/12 06:13:45;;;;;;;15.10;14.00;;;1.10;99.90;;;;;;5031004;28;20453;-79
2021/12/12 06:16:18;;;;;;;14.67;13.67;;;1.00;99.90;;;;;;5029657;28;20517;-79
2021/12/12 06:18:46;;;;;;;15.23;14.03;;;1.00;99.90;;;;;;5033406;28;20456;-81
2021/12/12 06:21:13;;;;;;;15.23;14.20;;;0.90;99.90;;;;;;5029682;28;20458;-81
2021/12/12 06:23:40;;;;;;;14.67;13.67;;;0.90;99.90;;;;;;5023801;28;20461;-80
2021/12/12 06:26:08;;;;;;;15.10;14.10;;;0.90;99.90;;;;;;5026909;28;20835;-81
2021/12/12 06:28:38;;;;;;;15.80;14.50;;;0.90;99.90;;;;;;5032846;28;20440;-79
2021/12/12 06:31:07;;;;;;;15.53;14.43;;;0.90;99.90;;;;;;5031355;28;20531;-80
2021/12/12 06:33:37;;;;;;;15.33;14.23;;;0.80;99.90;;;;;;5035007;28;20536;-81
2021/12/12 06:36:05;;;;;;;15.47;14.40;;;0.80;99.90;;;;;;5037481;28;20439;-80
2021/12/12 06:38:33;;;;;;;16.27;15.07;;;0.80;99.90;;;;;;5034502;28;20436;-77
2021/12/12 06:41:00;;;;;;;16.00;14.90;;;0.70;99.90;;;;;;5031956;28;20483;-78
2021/12/12 06:43:29;;;;;;;15.07;13.93;;;0.70;99.90;;;;;;5033326;28;20453;-77
2021/12/12 06:45:59;;;;;;;14.70;13.70;;;0.70;99.90;;;;;;5036676;28;20444;-81
2021/12/12 06:48:27;;;;;;;14.40;13.30;;;0.70;99.90;;;;;;5028894;28;20979;-81
2021/12/12 06:50:56;;;;;;;14.50;13.50;;;0.60;99.90;;;;;;5023674;28;20471;-80
2021/12/12 06:53:27;;;;;;;16.20;15.10;;;0.70;99.90;;;;;;5032823;28;20443;-81
2021/12/12 06:55:58;;;;;;;16.20;15.00;;;0.60;99.90;;;;;;5024974;28;20485;-80
2021/12/12 06:58:27;;;;;;;15.43;14.40;;;0.70;99.90;;;;;;5050373;28;20439;-82
2021/12/12 07:00:58;;;;;;;16.43;15.13;;;0.70;99.90;;;;;;5033879;28;20487;-80
2021/12/12 07:03:25;;;;;;;17.10;15.70;;;0.70;99.90;;;;;;5031886;28;21057;-81
2021/12/12 07:05:53;;;;;;;17.20;15.90;;;0.70;99.90;;;;;;5033086;28;20484;-80
2021/12/12 07:08:23;;;;;;;16.90;15.70;;;0.70;99.90;;;;;;5031798;28;20533;-79
2021/12/12 07:10:50;;;;;;;17.03;15.83;;;0.70;99.90;;;;;;5032838;28;20517;-79
2021/12/12 07:13:18;;;;;;;17.23;15.93;;;0.80;99.90;;;;;;5035365;28;20448;-80
2021/12/12 07:15:47;;;;;;;18.73;17.13;;;0.80;99.90;;;;;;5033786;28;20481;-79
2021/12/12 07:18:19;;;;;;;18.67;17.03;;;0.80;99.90;;;;;;5032164;28;20505;-80
2021/12/12 07:20:49;;;;;;;16.57;15.27;;;0.80;99.90;;;;;;5030924;28;20514;-80
2021/12/12 07:23:16;;;;;;;17.13;15.60;;;0.80;99.90;;;;;;5039108;28;20448;-80
2021/12/12 07:25:45;;;;;;;16.23;15.07;;;0.80;99.90;;;;;;5025741;28;20429;-79
2021/12/12 07:28:16;;;;;;;16.13;14.93;;;0.80;99.90;;;;;;5038347;28;20438;-79
2021/12/12 07:30:43;;;;;;;16.67;15.37;;;0.80;99.90;;;;;;5031968;28;21022;-80
2021/12/12 07:33:11;;;;;;;16.37;15.17;;;0.80;99.90;;;;;;5034680;28;20477;-81
2021/12/12 07:35:43;;;;;;;16.77;15.40;;;0.80;99.90;;;;;;5029610;28;20545;-81
2021/12/12 07:38:12;;;;;;;16.37;15.07;;;0.80;99.90;;;;;;5036541;28;20532;-81
2021/12/12 07:40:39;;;;;;;17.13;15.83;;;0.80;99.90;;;;;;5029643;28;20458;-80
2021/12/12 07:43:07;;;;;;;16.47;15.27;;;0.90;99.90;;;;;;5034588;28;20975;-80
2021/12/12 07:45:35;;;;;;;16.57;15.37;;;0.90;99.90;;;;;;5031842;28;20839;-79
2021/12/12 07:48:03;;;;;;;16.33;15.13;;;1.00;99.90;;;;;;5019160;28;20468;-76
2021/12/12 07:50:30;;;;;;;16.60;15.30;;;1.00;99.90;;;;;;5029208;28;20497;-79
2021/12/12 07:52:59;;;;;;;17.53;16.23;;;1.10;99.90;;;;;;5039391;28;20474;-77
2021/12/12 07:55:27;;;;;;;17.60;16.20;;;1.10;99.90;;;;;;5031433;28;20827;-81
2021/12/12 07:57:54;;;;;;;16.80;15.50;;;1.30;99.90;;;;;;5029783;28;20459;-81
2021/12/12 08:00:24;;;;;;;16.77;15.57;;;1.50;99.90;;;;;;5027062;28;20495;-77
2021/12/12 08:02:52;;;;;;;16.80;15.30;;;1.80;99.90;;;;;;5025539;28;20462;-79
2021/12/12 08:05:21;;;;;;;16.57;15.37;;;2.10;99.90;;;;;;5024727;28;20494;-80
2021/12/12 08:07:48;;;;;;;15.80;14.70;;;2.50;99.90;;;;;;5031946;28;20465;-80
2021/12/12 08:10:18;;;;;;;13.47;12.47;;;2.90;99.90;;;;;;5032996;28;20802;-80
2021/12/12 08:12:45;;;;;;;13.07;11.97;;;3.30;99.90;;;;;;5032567;28;20535;-80
2021/12/12 08:15:17;;;;;;;14.10;13.07;;;3.70;99.90;;;;;;5033936;28;20475;-80
2021/12/12 08:17:45;;;;;;;16.00;14.80;;;3.90;99.90;;;;;;5030611;28;20325;-80
2021/12/12 08:20:15;;;;;;;15.20;14.20;;;4.10;99.90;;;;;;5031994;28;20204;-80
2021/12/12 08:22:44;;;;;;;14.23;13.13;;;4.10;99.90;;;;;;5036622;28;20215;-80
2021/12/12 08:25:13;;;;;;;14.43;13.47;;;4.30;99.90;;;;;;5022682;28;20205;-79
2021/12/12 08:27:42;;;;;;;14.97;13.90;;;4.40;99.90;;;;;;5028191;28;20204;-80
2021/12/12 08:30:11;;;;;;;14.77;13.67;;;4.40;99.90;;;;;;5028353;28;20234;-80
2021/12/12 08:32:39;;;;;;;14.37;13.37;;;4.60;99.90;;;;;;5024336;28;20219;-80
2021/12/12 08:35:08;;;;;;;15.60;14.50;;;4.80;99.90;;;;;;5025730;28;20227;-80
2021/12/12 08:37:36;;;;;;;14.40;13.40;;;5.10;99.90;;;;;;5027817;28;20201;-80
2021/12/12 08:40:05;;;;;;;14.57;13.60;;;5.30;99.90;;;;;;5033533;28;20196;-79
2021/12/12 08:42:32;;;;;;;13.37;12.57;;;5.20;99.90;;;;;;5032068;28;20218;-79
2021/12/12 08:45:02;;;;;;;14.10;13.20;;;5.20;99.90;;;;;;5020052;28;20250;-80
2021/12/12 08:47:33;;;;;;;14.47;13.57;;;5.10;99.90;;;;;;5027703;28;20242;-80
2021/12/12 08:50:00;;;;;;;13.60;12.70;;;4.80;99.90;;;;;;5032945;28;20338;-81
2021/12/12 08:52:34;;;;;;;13.90;12.83;;;4.70;99.90;;;;;;5024353;28;20233;-80
2021/12/12 08:55:02;;;;;;;14.30;13.30;;;4.60;99.90;;;;;;5028267;28;20288;-80
2021/12/12 08:57:39;;;;;;;13.50;12.60;;;4.50;99.90;;;;;;5022857;28;20200;-80
2021/12/12 09:00:15;;;;;;;13.27;12.37;;;4.50;99.90;;;;;;5030681;28;20200;-80
2021/12/12 09:02:43;;;;;;;13.43;12.53;;;4.30;99.90;;;;;;5036443;28;20220;-80
2021/12/12 09:05:17;;;;;;;13.33;12.40;;;4.30;99.90;;;;;;5036302;28;20211;-79
2021/12/12 09:07:46;;;;;;;13.23;12.30;;;4.30;99.90;;;;;;5034181;28;20577;-79
2021/12/12 09:10:21;;;;;;;13.50;12.57;;;4.30;99.90;;;;;;5028584;28;20212;-81
2021/12/12 09:12:55;;;;;;;12.57;11.77;;;4.30;99.90;;;;;;5032280;28;20299;-81
2021/12/12 09:15:30;;;;;;;13.40;12.40;;;4.20;99.90;;;;;;5028216;28;20243;-81
2021/12/12 09:18:00;;;;;;;13.33;12.43;;;4.20;99.90;;;;;;5034316;28;20218;-82
2021/12/12 09:20:35;;;;;;;12.87;12.07;;;4.20;99.90;;;;;;5035189;28;20201;-81
2021/12/12 09:23:07;;;;;;;12.73;11.83;;;4.10;99.90;;;;;;5041235;28;20245;-81
2021/12/12 09:25:42;;;;;;;13.17;12.27;;;4.10;99.90;;;;;;5030207;28;20192;-81
2021/12/12 09:28:13;;;;;;;13.53;12.63;;;4.10;99.90;;;;;;5036106;28;20195;-81
2021/12/12 09:30:42;;;;;;;13.43;12.43;;;4.10;99.90;;;;;;5036029;28;20204;-81
2021/12/12 09:33:18;;;;;;;13.00;12.00;;;4.10;99.90;;;;;;5033078;28;20200;-80
2021/12/12 09:35:50;;;;;;;12.93;12.03;;;4.20;99.90;;;;;;5035381;28;20212;-77
2021/12/12 09:38:25;;;;;;;12.73;11.83;;;4.30;99.90;;;;;;5030233;28;20254;-78
2021/12/12 09:41:27;;;;;;;12.53;11.70;;;4.40;99.90;;;;;;5034529;28;20215;-77
2021/12/12 09:44:22;;;;;;;13.20;12.30;;;4.50;99.90;;;;;;5031687;28;20199;-80
2021/12/12 09:47:26;;;;;;;13.70;12.60;;;4.60;99.90;;;;;;5025062;28;20192;-80
2021/12/12 09:53:12;;;;;;;13.97;12.83;;;4.50;99.90;;;;;;5026851;28;20191;-81
2021/12/12 09:55:47;;;;;;;13.37;12.33;;;4.60;99.90;;;;;;5033259;28;20223;-80
2021/12/12 09:58:22;;;;;;;12.77;11.80;;;4.60;99.90;;;;;;5035502;28;20199;-81
2021/12/12 10:00:58;;;;;;;13.00;11.90;;;4.60;99.90;;;;;;5032790;28;20215;-80
2021/12/12 10:03:44;;;;;;;12.63;11.70;;;4.70;99.90;;;;;;5012331;28;20653;-81
2021/12/12 10:06:17;;;;;;;11.80;11.00;;;4.70;99.90;;;;;;5036172;28;20196;-80
2021/12/12 10:08:59;;;;;;;12.00;11.10;;;4.80;99.90;;;;;;5034632;28;20204;-80
2021/12/12 10:11:38;;;;;;;12.07;11.27;;;4.80;99.90;;;;;;5027136;28;20281;-80
2021/12/12 10:14:13;;;;;;;11.37;10.57;;;5.00;99.90;;;;;;5035066;28;20726;-81
2021/12/12 10:16:49;;;;;;;12.60;11.60;;;5.10;99.90;;;;;;5033236;28;20273;-81
2021/12/12 10:19:28;;;;;;;12.10;11.30;;;5.20;99.90;;;;;;5022728;28;20577;-80
2021/12/12 10:22:06;;;;;;;11.83;10.93;;;5.00;99.90;;;;;;5032062;28;20215;-81
2021/12/12 10:24:35;;;;;;;12.10;11.20;;;5.10;99.90;;;;;;5023733;28;20277;-81
2021/12/12 10:27:10;;;;;;;12.03;11.23;;;5.10;99.90;;;;;;5028536;28;20192;-81
2021/12/12 10:29:48;;;;;;;11.97;11.07;;;5.20;99.90;;;;;;5027026;28;20249;-81
2021/12/12 10:32:21;;;;;;;12.17;11.20;;;5.30;99.90;;;;;;5026455;28;20739;-81
2021/12/12 10:34:53;;;;;;;11.77;10.97;;;5.40;99.90;;;;;;5027439;28;20695;-80
2021/12/12 10:37:26;;;;;;;11.93;11.13;;;5.40;99.90;;;;;;5033910;28;20550;-80
2021/12/12 10:39:58;;;;;;;11.43;10.63;;;5.40;99.90;;;;;;5025954;28;20231;-80
2021/12/12 10:42:30;;;;;;;11.80;10.90;;;5.40;99.90;;;;;;5034496;28;20216;-81
2021/12/12 10:45:02;;;;;;;12.80;11.70;;;5.30;99.90;;;;;;5032819;28;20214;-81
2021/12/12 10:47:36;;;;;;;12.20;11.30;;;5.40;99.90;;;;;;5024678;28;20660;-80
2021/12/12 10:50:11;;;;;;;11.77;10.97;;;5.40;99.90;;;;;;5020058;28;20200;-81
2021/12/12 10:52:43;;;;;;;12.03;11.20;;;5.50;99.90;;;;;;5032301;28;20254;-81
2021/12/12 10:55:16;;;;;;;11.83;10.83;;;5.50;99.90;;;;;;5024950;28;20223;-80
2021/12/12 10:57:46;;;;;;;10.97;10.17;;;5.60;99.90;;;;;;5033426;28;20207;-80
2021/12/12 11:00:17;;;;;;;11.23;10.43;;;5.60;99.90;;;;;;5026903;28;20686;-80
2021/12/12 11:02:56;;;;;;;10.90;10.13;;;5.50;99.90;;;;;;5032472;28;20598;-81
2021/12/12 11:05:28;;;;;;;11.27;10.37;;;5.50;99.90;;;;;;5025255;28;20621;-81
2021/12/12 11:08:03;;;;;;;10.80;10.10;;;5.60;99.90;;;;;;5029372;28;20212;-81
2021/12/12 11:10:35;;;;;;;10.93;10.23;;;5.60;99.90;;;;;;5024498;28;20203;-82
2021/12/12 11:13:09;;;;;;;11.80;10.90;;;5.70;99.90;;;;;;5033061;28;20257;-80
2021/12/12 11:15:43;;;;;;;10.97;10.23;;;5.70;99.90;;;;;;5023958;28;20216;-78
2021/12/12 11:18:14;;;;;;;12.17;11.27;;;5.70;99.90;;;;;;5029216;28;20204;-79
2021/12/12 11:20:45;;;;;;;11.37;10.57;;;5.70;99.90;;;;;;5031816;28;20651;-80
2021/12/12 11:23:21;;;;;;;13.03;12.17;;;5.80;99.90;;;;;;5030828;28;20207;-80
2021/12/12 11:25:51;;;;;;;12.60;11.80;;;5.90;99.90;;;;;;5033589;28;20599;-80
2021/12/12 11:28:22;;;;;;;12.80;11.80;;;6.00;99.90;;;;;;5030049;28;20636;-80
2021/12/12 11:30:52;;;;;;;12.70;11.80;;;6.10;99.90;;;;;;5023262;28;20226;-80
2021/12/12 11:33:20;;;;;;;13.10;12.20;;;6.10;99.90;;;;;;5032024;28;20198;-81
2021/12/12 11:35:52;;;;;;;12.33;11.43;;;6.10;99.90;;;;;;5030846;28;20213;-81
2021/12/12 11:38:31;;;;;;;12.13;11.33;;;6.20;99.90;;;;;;5031512;28;20193;-80
2021/12/12 11:41:10;;;;;;;12.73;11.87;;;6.30;99.90;;;;;;5029369;28;20309;-80
2021/12/12 11:43:41;;;;;;;13.00;12.10;;;6.30;99.90;;;;;;5030912;28;20209;-81
2021/12/12 11:46:13;;;;;;;13.03;12.03;;;6.30;99.90;;;;;;5033020;28;20552;-80
2021/12/12 11:48:49;;;;;;;12.77;11.97;;;6.40;99.90;;;;;;5013698;28;20631;-80
2021/12/12 11:51:22;;;;;;;12.80;12.00;;;6.40;99.90;;;;;;5046243;28;20224;-79
2021/12/12 11:53:52;;;;;;;12.87;11.97;;;6.40;99.90;;;;;;5026303;28;20207;-80
2021/12/12 11:56:24;;;;;;;13.10;12.20;;;6.50;99.90;;;;;;5026123;28;20216;-80
2021/12/12 11:59:03;;;;;;;12.93;11.97;;;6.50;99.90;;;;;;5030458;28;20229;-81
2021/12/12 12:01:39;;;;;;;12.67;11.80;;;6.60;99.90;;;;;;5045961;28;20257;-81
2021/12/12 12:04:33;;;;;;;12.50;11.60;;;6.50;99.90;;;;;;5027920;28;20256;-81
2021/12/12 12:07:12;;;;;;;12.73;11.93;;;6.50;99.90;;;;;;5027430;28;20198;-80
2021/12/12 12:09:49;;;;;;;12.73;11.73;;;6.60;99.90;;;;;;5029266;28;20198;-80
2021/12/12 12:12:27;;;;;;;13.17;12.27;;;6.60;99.90;;;;;;5029961;28;20237;-78
2021/12/12 12:15:06;;;;;;;12.73;11.63;;;6.70;99.90;;;;;;5026714;28;20260;-78
2021/12/12 12:17:50;;;;;;;12.67;11.77;;;6.70;99.90;;;;;;5043424;28;20234;-79
2021/12/12 12:20:28;;;;;;;13.27;12.27;;;6.70;99.90;;;;;;5030072;28;20247;-79
2021/12/12 12:23:06;;;;;;;13.20;12.30;;;6.70;99.90;;;;;;5026913;28;20237;-82
2021/12/12 12:26:50;;;;;;;12.90;12.00;;;6.70;99.90;;;;;;5031323;28;20225;-81
2021/12/12 12:28:35;;;;;;;12.37;11.50;;;6.70;99.90;;;;;;5037975;28;20219;-81
2021/12/12 12:32:03;;;;;;;13.10;12.20;;;6.60;99.90;;;;;;5033225;28;20284;-82
2021/12/12 13:39:08;;;;;;;;;;;;;;;;;;;;;
2021/12/12 13:41:51;;;;;;;12.63;11.83;;;7.30;99.90;;;;;;5013927;28;20219;-79
2021/12/12 13:44:38;;;;;;;12.43;11.63;;;7.40;99.90;;;;;;5028131;28;20270;-80
2021/12/12 13:47:14;;;;;;;12.40;11.60;;;7.40;99.90;;;;;;5022265;28;20199;-81
2021/12/12 13:50:01;;;;;;;12.23;11.40;;;7.40;99.90;;;;;;5015069;28;20727;-81
2021/12/12 13:52:38;;;;;;;11.77;10.97;;;7.50;99.90;;;;;;5007038;28;20211;-81
2021/12/12 13:55:31;;;;;;;13.23;12.33;;;7.50;99.90;;;;;;5021984;28;20739;-80
2021/12/12 13:58:05;;;;;;;13.13;12.23;;;7.50;99.90;;;;;;5019439;28;20223;-82
2021/12/12 14:00:36;;;;;;;12.37;11.60;;;7.50;99.90;;;;;;5014465;28;20195;-80
2021/12/12 14:03:07;;;;;;;12.23;11.43;;;7.40;99.90;;;;;;5018304;28;20261;-79
2021/12/12 14:05:36;;;;;;;12.37;11.57;;;7.40;99.90;;;;;;5011811;28;20246;-79
2021/12/12 14:08:07;;;;;;;12.27;11.47;;;7.30;99.90;;;;;;5015422;28;20217;-79
2021/12/12 14:10:38;;;;;;;12.10;11.20;;;7.30;99.90;;;;;;5017029;28;20626;-79
2021/12/12 14:13:08;;;;;;;11.57;10.87;;;7.20;99.90;;;;;;5018368;28;20687;-78
2021/12/12 14:15:38;;;;;;;12.00;11.20;;;7.20;99.90;;;;;;4999759;28;20212;-80
2021/12/12 14:18:10;;;;;;;11.90;11.10;;;7.20;99.90;;;;;;5013980;28;20218;-79
2021/12/12 14:20:42;;;;;;;12.30;11.50;;;7.20;99.90;;;;;;5013239;28;20204;-80
2021/12/12 14:23:13;;;;;;;11.87;11.10;;;7.10;99.90;;;;;;5028348;28;20209;-80